sensor_id;sensor_type;location;lat;lon;timestamp;pressure;altitude;pressure_sealevel;temperature;humidity
22753;BME280;11543;43.144;24.684;2023-02-12T00:02:25;99891.78;;;2.78;56.00
22753;BME280;11543;43.144;24.684;2023-02-12T00:04:51;99867.72;;;2.66;55.78
22753;BME280;11543;43.144;24.684;2023-02-12T00:07:16;99898.38;;;2.87;56.12
22753;BME280;11543;43.144;24.684;2023-02-12T00:09:42;99894.19;;;2.83;56.17
22753;BME280;11543;43.144;24.684;2023-02-12T00:12:08;99908.50;;;2.96;55.71
22753;BME280;11543;43.144;24.684;2023-02-12T00:14:36;99878.59;;;2.77;56.15
22753;BME280;11543;43.144;24.684;2023-02-12T00:17:01;99894.34;;;2.80;55.48
22753;BME280;11543;43.144;24.684;2023-02-12T00:19:27;99901.81;;;2.89;55.53
22753;BME280;11543;43.144;24.684;2023-02-12T00:21:53;99876.72;;;2.79;54.91
22753;BME280;11543;43.144;24.684;2023-02-12T00:24:19;99880.16;;;2.81;54.94
22753;BME280;11543;43.144;24.684;2023-02-12T00:26:44;99894.63;;;2.91;55.41
22753;BME280;11543;43.144;24.684;2023-02-12T00:29:10;99904.59;;;3.03;55.52
22753;BME280;11543;43.144;24.684;2023-02-12T00:31:35;99902.53;;;3.08;55.46
22753;BME280;11543;43.144;24.684;2023-02-12T00:34:01;99904.41;;;3.06;55.68
22753;BME280;11543;43.144;24.684;2023-02-12T00:36:29;99879.59;;;2.92;55.61
22753;BME280;11543;43.144;24.684;2023-02-12T00:38:55;99903.34;;;2.93;55.61
22753;BME280;11543;43.144;24.684;2023-02-12T00:41:22;99863.81;;;2.73;56.07
22753;BME280;11543;43.144;24.684;2023-02-12T00:43:48;99867.75;;;2.81;56.38
22753;BME280;11543;43.144;24.684;2023-02-12T00:46:13;99845.00;;;2.77;56.45
22753;BME280;11543;43.144;24.684;2023-02-12T00:48:39;99849.13;;;2.83;56.26
22753;BME280;11543;43.144;24.684;2023-02-12T00:51:05;99876.78;;;2.95;56.26
22753;BME280;11543;43.144;24.684;2023-02-12T00:53:31;99874.09;;;2.79;56.63
22753;BME280;11543;43.144;24.684;2023-02-12T00:55:57;99843.09;;;2.64;57.41
22753;BME280;11543;43.144;24.684;2023-02-12T00:58:23;99856.09;;;2.68;57.22
22753;BME280;11543;43.144;24.684;2023-02-12T01:00:49;99860.06;;;2.77;57.41
22753;BME280;11543;43.144;24.684;2023-02-12T01:03:15;99880.16;;;2.81;56.79
22753;BME280;11543;43.144;24.684;2023-02-12T01:05:41;99861.41;;;2.68;56.85
22753;BME280;11543;43.144;24.684;2023-02-12T01:08:06;99876.81;;;2.77;56.80
22753;BME280;11543;43.144;24.684;2023-02-12T01:10:32;99849.94;;;2.68;56.59
22753;BME280;11543;43.144;24.684;2023-02-12T01:12:58;99839.09;;;2.55;56.44
22753;BME280;11543;43.144;24.684;2023-02-12T01:15:23;99850.41;;;2.59;56.17
22753;BME280;11543;43.144;24.684;2023-02-12T01:17:52;99835.22;;;2.45;56.01
22753;BME280;11543;43.144;24.684;2023-02-12T01:20:20;99878.47;;;2.63;55.96
22753;BME280;11543;43.144;24.684;2023-02-12T01:22:46;99863.03;;;2.53;55.94
22753;BME280;11543;43.144;24.684;2023-02-12T01:25:11;99874.88;;;2.64;55.95
22753;BME280;11543;43.144;24.684;2023-02-12T01:27:39;99846.59;;;2.47;55.69
22753;BME280;11543;43.144;24.684;2023-02-12T01:30:07;99852.44;;;2.53;56.30
22753;BME280;11543;43.144;24.684;2023-02-12T01:32:34;99874.03;;;2.63;56.40
22753;BME280;11543;43.144;24.684;2023-02-12T01:35:00;99834.59;;;2.40;56.06
22753;BME280;11543;43.144;24.684;2023-02-12T01:37:25;99831.34;;;2.35;56.26
22753;BME280;11543;43.144;24.684;2023-02-12T01:39:51;99861.00;;;2.59;56.95
22753;BME280;11543;43.144;24.684;2023-02-12T01:42:16;99830.69;;;2.47;56.84
22753;BME280;11543;43.144;24.684;2023-02-12T01:47:40;99827.03;;;2.49;56.47
22753;BME280;11543;43.144;24.684;2023-02-12T01:50:07;99832.50;;;2.46;56.58
22753;BME280;11543;43.144;24.684;2023-02-12T01:52:35;99842.16;;;2.47;56.53
22753;BME280;11543;43.144;24.684;2023-02-12T01:55:05;99823.47;;;2.33;56.02
22753;BME280;11543;43.144;24.684;2023-02-12T01:57:33;99832.56;;;2.45;56.50
22753;BME280;11543;43.144;24.684;2023-02-12T02:00:01;99831.09;;;2.39;56.57
22753;BME280;11543;43.144;24.684;2023-02-12T02:02:30;99833.59;;;2.42;57.08
22753;BME280;11543;43.144;24.684;2023-02-12T02:04:59;99831.63;;;2.46;57.01
22753;BME280;11543;43.144;24.684;2023-02-12T02:07:25;99827.19;;;2.46;56.55
22753;BME280;11543;43.144;24.684;2023-02-12T02:09:51;99836.53;;;2.53;56.49
22753;BME280;11543;43.144;24.684;2023-02-12T02:12:17;99846.69;;;2.63;56.08
22753;BME280;11543;43.144;24.684;2023-02-12T02:15:03;99842.41;;;2.60;55.94
22753;BME280;11543;43.144;24.684;2023-02-12T02:36:51;99825.84;;;2.72;56.59
22753;BME280;11543;43.144;24.684;2023-02-12T02:39:28;99839.91;;;2.90;56.21
22753;BME280;11543;43.144;24.684;2023-02-12T02:44:32;99853.59;;;2.98;56.36
22753;BME280;11543;43.144;24.684;2023-02-12T02:47:02;99829.81;;;2.81;56.48
22753;BME280;11543;43.144;24.684;2023-02-12T02:49:35;99810.81;;;2.73;57.03
22753;BME280;11543;43.144;24.684;2023-02-12T02:52:07;99837.19;;;2.92;57.32
22753;BME280;11543;43.144;24.684;2023-02-12T02:54:38;99851.41;;;3.06;57.74
22753;BME280;11543;43.144;24.684;2023-02-12T02:57:16;99809.97;;;2.88;57.55
22753;BME280;11543;43.144;24.684;2023-02-12T02:59:47;99842.16;;;3.13;57.33
22753;BME280;11543;43.144;24.684;2023-02-12T03:02:19;99807.78;;;2.96;57.36
22753;BME280;11543;43.144;24.684;2023-02-12T03:04:50;99800.16;;;2.90;57.00
22753;BME280;11543;43.144;24.684;2023-02-12T03:07:20;99807.78;;;2.96;56.65
22753;BME280;11543;43.144;24.684;2023-02-12T03:10:02;99842.09;;;3.15;57.26
22753;BME280;11543;43.144;24.684;2023-02-12T03:12:45;99811.69;;;2.89;58.26
22753;BME280;11543;43.144;24.684;2023-02-12T03:15:25;99830.19;;;3.06;58.37
22753;BME280;11543;43.144;24.684;2023-02-12T03:17:55;99795.63;;;2.92;57.89
22753;BME280;11543;43.144;24.684;2023-02-12T03:20:29;99796.31;;;2.96;57.70
22753;BME280;11543;43.144;24.684;2023-02-12T03:25:33;99804.00;;;3.00;57.39
22753;BME280;11543;43.144;24.684;2023-02-12T03:28:09;99810.34;;;2.98;57.35
22753;BME280;11543;43.144;24.684;2023-02-12T03:30:50;99836.53;;;3.19;56.73
22753;BME280;11543;43.144;24.684;2023-02-12T03:33:34;99840.81;;;3.22;55.82
22753;BME280;11543;43.144;24.684;2023-02-12T03:36:16;99844.47;;;3.19;55.66
22753;BME280;11543;43.144;24.684;2023-02-12T03:38:53;99828.66;;;3.02;55.59
22753;BME280;11543;43.144;24.684;2023-02-12T03:41:29;99835.31;;;3.09;55.98
22753;BME280;11543;43.144;24.684;2023-02-12T03:44:14;99810.75;;;2.90;57.08
22753;BME280;11543;43.144;24.684;2023-02-12T03:47:01;99856.81;;;3.20;56.68
22753;BME280;11543;43.144;24.684;2023-02-12T03:49:59;99830.19;;;3.06;56.53
22753;BME280;11543;43.144;24.684;2023-02-12T03:52:28;99823.75;;;2.95;57.06
22753;BME280;11543;43.144;24.684;2023-02-12T03:54:54;99821.63;;;3.01;57.64
22753;BME280;11543;43.144;24.684;2023-02-12T03:57:21;99840.63;;;3.09;58.19
22753;BME280;11543;43.144;24.684;2023-02-12T03:59:50;99817.88;;;3.05;58.00
22753;BME280;11543;43.144;24.684;2023-02-12T04:02:17;99805.72;;;2.85;59.59
22753;BME280;11543;43.144;24.684;2023-02-12T04:04:43;99810.66;;;2.76;60.69
22753;BME280;11543;43.144;24.684;2023-02-12T04:07:10;99851.31;;;3.08;59.63
22753;BME280;11543;43.144;24.684;2023-02-12T04:09:37;99841.63;;;2.91;61.18
22753;BME280;11543;43.144;24.684;2023-02-12T04:15:04;99835.44;;;2.75;61.80
22753;BME280;11543;43.144;24.684;2023-02-12T04:17:50;99826.53;;;2.76;62.10
22753;BME280;11543;43.144;24.684;2023-02-12T04:23:06;99851.19;;;2.43;64.54
22753;BME280;11543;43.144;24.684;2023-02-12T04:31:00;99824.41;;;1.80;67.85
22753;BME280;11543;43.144;24.684;2023-02-12T04:33:33;99822.72;;;1.97;67.14
22753;BME280;11543;43.144;24.684;2023-02-12T04:36:20;99801.88;;;1.72;68.36
22753;BME280;11543;43.144;24.684;2023-02-12T04:39:00;99845.97;;;1.90;69.01
22753;BME280;11543;43.144;24.684;2023-02-12T04:41:29;99829.56;;;1.65;69.77
22753;BME280;11543;43.144;24.684;2023-02-12T04:43:55;99814.41;;;1.68;69.92
22753;BME280;11543;43.144;24.684;2023-02-12T04:46:20;99830.25;;;1.87;69.20
22753;BME280;11543;43.144;24.684;2023-02-12T04:48:56;99839.84;;;1.89;69.17
22753;BME280;11543;43.144;24.684;2023-02-12T04:51:22;99810.56;;;1.75;69.69
22753;BME280;11543;43.144;24.684;2023-02-12T04:53:49;99824.56;;;1.77;69.55
22753;BME280;11543;43.144;24.684;2023-02-12T04:56:15;99841.84;;;1.84;70.38
22753;BME280;11543;43.144;24.684;2023-02-12T04:58:41;99828.00;;;1.79;70.08
22753;BME280;11543;43.144;24.684;2023-02-12T05:01:07;99835.00;;;1.80;69.72
22753;BME280;11543;43.144;24.684;2023-02-12T05:03:33;99819.84;;;1.65;70.32
22753;BME280;11543;43.144;24.684;2023-02-12T05:06:06;99848.06;;;1.83;69.79
22753;BME280;11543;43.144;24.684;2023-02-12T05:08:33;99863.25;;;1.80;70.83
22753;BME280;11543;43.144;24.684;2023-02-12T05:11:06;99846.78;;;1.73;70.67
22753;BME280;11543;43.144;24.684;2023-02-12T05:13:32;99850.72;;;1.83;70.70
22753;BME280;11543;43.144;24.684;2023-02-12T05:15:57;99856.97;;;2.00;70.54
22753;BME280;11543;43.144;24.684;2023-02-12T05:18:23;99857.44;;;1.90;70.00
22753;BME280;11543;43.144;24.684;2023-02-12T05:20:58;99884.84;;;2.07;69.49
22753;BME280;11543;43.144;24.684;2023-02-12T05:23:29;99865.84;;;1.99;70.19
22753;BME280;11543;43.144;24.684;2023-02-12T05:25:57;99878.47;;;2.28;69.23
22753;BME280;11543;43.144;24.684;2023-02-12T05:28:23;99890.91;;;2.43;68.46
22753;BME280;11543;43.144;24.684;2023-02-12T05:30:48;99894.97;;;2.50;67.80
22753;BME280;11543;43.144;24.684;2023-02-12T05:33:14;99902.84;;;2.69;66.98
22753;BME280;11543;43.144;24.684;2023-02-12T05:35:39;99878.47;;;2.63;66.71
22753;BME280;11543;43.144;24.684;2023-02-12T05:38:05;99895.28;;;2.79;66.38
22753;BME280;11543;43.144;24.684;2023-02-12T05:40:30;99900.25;;;2.85;65.19
22753;BME280;11543;43.144;24.684;2023-02-12T05:42:56;99913.88;;;2.95;65.26
22753;BME280;11543;43.144;24.684;2023-02-12T05:45:21;99899.94;;;2.91;64.58
22753;BME280;11543;43.144;24.684;2023-02-12T05:47:54;99920.38;;;2.72;65.14
22753;BME280;11543;43.144;24.684;2023-02-12T05:50:21;99938.38;;;2.82;65.70
22753;BME280;11543;43.144;24.684;2023-02-12T05:52:46;99909.84;;;2.53;66.04
22753;BME280;11543;43.144;24.684;2023-02-12T05:55:12;99927.72;;;2.67;65.94
22753;BME280;11543;43.144;24.684;2023-02-12T05:57:37;99943.63;;;2.67;66.09
22753;BME280;11543;43.144;24.684;2023-02-12T06:00:04;99949.47;;;2.73;66.38
22753;BME280;11543;43.144;24.684;2023-02-12T06:02:30;99942.06;;;2.63;66.02
22753;BME280;11543;43.144;24.684;2023-02-12T06:04:57;99953.50;;;2.63;65.87
22753;BME280;11543;43.144;24.684;2023-02-12T06:07:22;99959.97;;;2.75;65.30
22753;BME280;11543;43.144;24.684;2023-02-12T06:09:48;99962.44;;;2.95;65.04
22753;BME280;11543;43.144;24.684;2023-02-12T06:12:13;99959.16;;;3.07;64.50
22753;BME280;11543;43.144;24.684;2023-02-12T06:14:40;99989.16;;;3.25;64.30
22753;BME280;11543;43.144;24.684;2023-02-12T06:17:05;99964.75;;;3.18;63.38
22753;BME280;11543;43.144;24.684;2023-02-12T06:19:31;99978.56;;;3.41;63.52
22753;BME280;11543;43.144;24.684;2023-02-12T06:21:56;99961.28;;;3.34;63.17
22753;BME280;11543;43.144;24.684;2023-02-12T06:24:22;99984.19;;;3.52;63.39
22753;BME280;11543;43.144;24.684;2023-02-12T06:26:51;99987.16;;;3.46;63.13
22753;BME280;11543;43.144;24.684;2023-02-12T06:29:18;99983.09;;;3.39;62.83
22753;BME280;11543;43.144;24.684;2023-02-12T06:31:44;99978.97;;;3.00;64.12
22753;BME280;11543;43.144;24.684;2023-02-12T06:34:11;99983.44;;;2.82;65.30
22753;BME280;11543;43.144;24.684;2023-02-12T06:36:39;99966.56;;;2.32;67.36
22753;BME280;11543;43.144;24.684;2023-02-12T06:39:06;99979.22;;;2.25;68.68
22753;BME280;11543;43.144;24.684;2023-02-12T06:41:33;99975.03;;;2.21;68.69
22753;BME280;11543;43.144;24.684;2023-02-12T06:43:58;99980.94;;;2.26;68.91
22753;BME280;11543;43.144;24.684;2023-02-12T06:46:24;99960.53;;;2.11;69.64
22753;BME280;11543;43.144;24.684;2023-02-12T06:48:55;99984.06;;;2.17;69.96
22753;BME280;11543;43.144;24.684;2023-02-12T06:51:21;99993.41;;;2.24;70.02
22753;BME280;11543;43.144;24.684;2023-02-12T06:53:48;99983.69;;;2.24;70.08
22753;BME280;11543;43.144;24.684;2023-02-12T06:56:13;100004.47;;;2.32;69.19
22753;BME280;11543;43.144;24.684;2023-02-12T06:58:41;100011.66;;;2.47;69.39
22753;BME280;11543;43.144;24.684;2023-02-12T07:03:38;100006.22;;;2.50;69.04
22753;BME280;11543;43.144;24.684;2023-02-12T07:06:03;99988.47;;;2.52;68.40
22753;BME280;11543;43.144;24.684;2023-02-12T07:08:34;100012.16;;;2.55;68.51
22753;BME280;11543;43.144;24.684;2023-02-12T07:10:59;100014.66;;;2.59;68.01
22753;BME280;11543;43.144;24.684;2023-02-12T07:13:25;100023.41;;;2.61;67.73
22753;BME280;11543;43.144;24.684;2023-02-12T07:15:50;100030.53;;;2.59;67.98
22753;BME280;11543;43.144;24.684;2023-02-12T07:18:15;100033.88;;;2.45;68.05
22753;BME280;11543;43.144;24.684;2023-02-12T07:20:41;100009.84;;;2.31;67.78
22753;BME280;11543;43.144;24.684;2023-02-12T07:23:10;100019.63;;;2.47;67.95
22753;BME280;11543;43.144;24.684;2023-02-12T07:25:35;100038.22;;;2.65;67.73
22753;BME280;11543;43.144;24.684;2023-02-12T07:28:00;100034.56;;;2.48;67.87
22753;BME280;11543;43.144;24.684;2023-02-12T07:30:26;100028.78;;;2.40;68.18
22753;BME280;11543;43.144;24.684;2023-02-12T07:32:51;100047.50;;;2.37;68.94
22753;BME280;11543;43.144;24.684;2023-02-12T07:35:17;100013.63;;;2.08;69.33
22753;BME280;11543;43.144;24.684;2023-02-12T07:37:42;100007.19;;;1.95;69.74
22753;BME280;11543;43.144;24.684;2023-02-12T07:40:08;100020.66;;;2.26;69.25
22753;BME280;11543;43.144;24.684;2023-02-12T07:42:33;100021.00;;;2.37;68.95
22753;BME280;11543;43.144;24.684;2023-02-12T07:44:59;100027.88;;;2.59;68.61
22753;BME280;11543;43.144;24.684;2023-02-12T07:47:24;100007.22;;;2.67;67.94
22753;BME280;11543;43.144;24.684;2023-02-12T07:49:49;100025.75;;;2.84;67.37
22753;BME280;11543;43.144;24.684;2023-02-12T07:52:15;100031.53;;;2.92;67.48
22753;BME280;11543;43.144;24.684;2023-02-12T07:54:40;100037.53;;;2.96;67.84
22753;BME280;11543;43.144;24.684;2023-02-12T07:57:06;100051.34;;;3.02;68.06
22753;BME280;11543;43.144;24.684;2023-02-12T07:59:31;100045.78;;;2.90;69.08
22753;BME280;11543;43.144;24.684;2023-02-12T08:01:57;100042.28;;;2.89;69.72
22753;BME280;11543;43.144;24.684;2023-02-12T08:04:24;100047.28;;;2.78;70.38
22753;BME280;11543;43.144;24.684;2023-02-12T08:06:52;100047.56;;;2.72;70.84
22753;BME280;11543;43.144;24.684;2023-02-12T08:09:23;100042.44;;;2.69;70.97
22753;BME280;11543;43.144;24.684;2023-02-12T08:11:49;100006.22;;;2.50;70.72
22753;BME280;11543;43.144;24.684;2023-02-12T08:14:17;100054.19;;;2.63;70.95
22753;BME280;11543;43.144;24.684;2023-02-12T08:16:44;100052.56;;;2.61;71.95
22753;BME280;11543;43.144;24.684;2023-02-12T08:19:10;100065.81;;;2.42;72.19
22753;BME280;11543;43.144;24.684;2023-02-12T08:21:36;100035.47;;;2.30;72.98
22753;BME280;11543;43.144;24.684;2023-02-12T08:24:02;100062.22;;;2.43;73.41
22753;BME280;11543;43.144;24.684;2023-02-12T08:26:30;100059.44;;;2.46;73.33
22753;BME280;11543;43.144;24.684;2023-02-12T08:29:01;100067.75;;;2.38;73.54
22753;BME280;11543;43.144;24.684;2023-02-12T08:31:30;100065.31;;;2.34;73.80
22753;BME280;11543;43.144;24.684;2023-02-12T08:33:56;100068.09;;;2.31;73.91
22753;BME280;11543;43.144;24.684;2023-02-12T08:36:25;100037.94;;;2.16;74.29
22753;BME280;11543;43.144;24.684;2023-02-12T08:38:51;100047.44;;;2.20;75.06
22753;BME280;11543;43.144;24.684;2023-02-12T08:41:22;100064.47;;;2.33;75.21
22753;BME280;11543;43.144;24.684;2023-02-12T08:43:48;100096.84;;;2.57;75.02
22753;BME280;11543;43.144;24.684;2023-02-12T08:46:17;100093.00;;;2.45;74.80
22753;BME280;11543;43.144;24.684;2023-02-12T08:48:44;100101.88;;;2.44;74.84
22753;BME280;11543;43.144;24.684;2023-02-12T08:53:40;100105.88;;;2.53;75.37
22753;BME280;11543;43.144;24.684;2023-02-12T08:56:07;100110.03;;;2.59;74.28
22753;BME280;11543;43.144;24.684;2023-02-12T08:58:35;100118.91;;;2.58;73.89
22753;BME280;11543;43.144;24.684;2023-02-12T09:01:02;100109.75;;;2.46;74.63
22753;BME280;11543;43.144;24.684;2023-02-12T09:03:28;100116.69;;;2.48;74.47
22753;BME280;11543;43.144;24.684;2023-02-12T09:05:53;100091.09;;;2.30;74.29
22753;BME280;11543;43.144;24.684;2023-02-12T09:08:20;100120.91;;;2.52;74.62
22753;BME280;11543;43.144;24.684;2023-02-12T09:10:45;100113.50;;;2.61;73.56
22753;BME280;11543;43.144;24.684;2023-02-12T09:13:13;100113.19;;;2.67;73.92
22753;BME280;11543;43.144;24.684;2023-02-12T09:15:41;100120.34;;;2.65;73.57
22753;BME280;11543;43.144;24.684;2023-02-12T09:18:08;100099.44;;;2.59;73.55
22753;BME280;11543;43.144;24.684;2023-02-12T09:20:37;100114.47;;;2.77;74.19
22753;BME280;11543;43.144;24.684;2023-02-12T09:23:04;100123.13;;;2.98;73.91
22753;BME280;11543;43.144;24.684;2023-02-12T09:25:30;100080.78;;;2.79;73.50
22753;BME280;11543;43.144;24.684;2023-02-12T09:27:59;100106.84;;;2.88;73.33
22753;BME280;11543;43.144;24.684;2023-02-12T09:30:24;100116.44;;;3.08;72.97
22753;BME280;11543;43.144;24.684;2023-02-12T09:32:50;100090.63;;;2.94;72.37
22753;BME280;11543;43.144;24.684;2023-02-12T09:35:15;100087.19;;;2.92;73.03
22753;BME280;11543;43.144;24.684;2023-02-12T09:37:42;100105.81;;;2.91;73.38
22753;BME280;11543;43.144;24.684;2023-02-12T09:40:17;100106.06;;;2.86;73.95
22753;BME280;11543;43.144;24.684;2023-02-12T09:45:23;100109.00;;;2.80;74.57
22753;BME280;11543;43.144;24.684;2023-02-12T09:51:25;100108.66;;;3.05;74.08
22753;BME280;11543;43.144;24.684;2023-02-12T09:54:04;100140.88;;;3.32;73.69
22753;BME280;11543;43.144;24.684;2023-02-12T09:56:30;100108.41;;;3.27;72.95
22753;BME280;11543;43.144;24.684;2023-02-12T09:59:40;100146.97;;;3.51;73.08
22753;BME280;11543;43.144;24.684;2023-02-12T10:02:26;100129.00;;;3.39;72.39
22753;BME280;11543;43.144;24.684;2023-02-12T10:04:52;100159.69;;;3.62;72.49
22753;BME280;11543;43.144;24.684;2023-02-12T10:10:22;100156.41;;;3.57;72.78
22753;BME280;11543;43.144;24.684;2023-02-12T10:13:35;100152.44;;;3.65;72.30
22753;BME280;11543;43.144;24.684;2023-02-12T10:19:29;100166.56;;;3.48;73.37
22753;BME280;11543;43.144;24.684;2023-02-12T10:24:24;100174.59;;;3.47;73.18
22753;BME280;11543;43.144;24.684;2023-02-12T10:26:55;100163.41;;;3.40;72.79
22753;BME280;11543;43.144;24.684;2023-02-12T10:29:36;100170.72;;;3.54;72.48
22753;BME280;11543;43.144;24.684;2023-02-12T10:32:09;100165.56;;;3.51;72.60
22753;BME280;11543;43.144;24.684;2023-02-12T10:34:36;100171.03;;;3.48;72.73
22753;BME280;11543;43.144;24.684;2023-02-12T10:37:12;100167.13;;;3.55;73.10
22753;BME280;11543;43.144;24.684;2023-02-12T10:39:48;100177.88;;;3.52;73.43
22753;BME280;11543;43.144;24.684;2023-02-12T10:42:35;100176.00;;;3.54;73.71
22753;BME280;11543;43.144;24.684;2023-02-12T10:45:04;100178.47;;;3.40;73.57
22753;BME280;11543;43.144;24.684;2023-02-12T10:47:30;100169.03;;;3.34;73.55
22753;BME280;11543;43.144;24.684;2023-02-12T10:50:01;100170.19;;;3.29;73.90
22753;BME280;11543;43.144;24.684;2023-02-12T10:52:44;100172.84;;;3.29;73.91
22753;BME280;11543;43.144;24.684;2023-02-12T10:55:50;100178.97;;;3.48;74.56
22753;BME280;11543;43.144;24.684;2023-02-12T10:58:28;100186.00;;;3.49;74.40
22753;BME280;11543;43.144;24.684;2023-02-12T11:00:59;100186.00;;;3.66;74.34
22753;BME280;11543;43.144;24.684;2023-02-12T11:03:32;100197.31;;;3.70;74.05
22753;BME280;11543;43.144;24.684;2023-02-12T11:06:17;100178.34;;;3.77;74.27
22753;BME280;11543;43.144;24.684;2023-02-12T11:08:43;100199.47;;;3.96;73.98
22753;BME280;11543;43.144;24.684;2023-02-12T11:11:29;100194.25;;;3.95;73.41
22753;BME280;11543;43.144;24.684;2023-02-12T11:14:18;100189.38;;;4.03;72.26
22753;BME280;11543;43.144;24.684;2023-02-12T11:16:55;100201.41;;;4.10;72.90
22753;BME280;11543;43.144;24.684;2023-02-12T11:19:28;100197.47;;;4.17;73.40
22753;BME280;11543;43.144;24.684;2023-02-12T11:22:10;100195.28;;;4.25;73.74
22753;BME280;11543;43.144;24.684;2023-02-12T11:24:44;100196.19;;;4.41;73.89
22753;BME280;11543;43.144;24.684;2023-02-12T11:27:21;100182.44;;;4.33;73.21
22753;BME280;11543;43.144;24.684;2023-02-12T11:32:35;100197.41;;;4.52;73.13
22753;BME280;11543;43.144;24.684;2023-02-12T11:37:32;100182.56;;;4.47;73.33
22753;BME280;11543;43.144;24.684;2023-02-12T11:39:57;100192.28;;;4.64;73.54
22753;BME280;11543;43.144;24.684;2023-02-12T11:42:25;100186.28;;;4.61;73.96
22753;BME280;11543;43.144;24.684;2023-02-12T11:44:57;100189.53;;;4.66;74.06
22753;BME280;11543;43.144;24.684;2023-02-12T11:49:52;100186.09;;;4.79;70.36
22753;BME280;11543;43.144;24.684;2023-02-12T11:52:25;100198.63;;;4.93;69.92
22753;BME280;11543;43.144;24.684;2023-02-12T11:54:55;100195.97;;;4.93;71.10
22753;BME280;11543;43.144;24.684;2023-02-12T11:58:00;100201.72;;;5.01;70.46
22753;BME280;11543;43.144;24.684;2023-02-12T12:00:36;100207.03;;;5.01;70.44
22753;BME280;11543;43.144;24.684;2023-02-12T12:03:34;100181.91;;;4.91;70.27
22753;BME280;11543;43.144;24.684;2023-02-12T12:06:07;100184.91;;;4.85;70.94
22753;BME280;11543;43.144;24.684;2023-02-12T12:11:21;100181.13;;;5.21;71.89
22753;BME280;11543;43.144;24.684;2023-02-12T12:14:13;100195.69;;;5.29;70.74
22753;BME280;11543;43.144;24.684;2023-02-12T12:17:02;100186.91;;;5.43;71.88
22753;BME280;11543;43.144;24.684;2023-02-12T12:19:54;100198.53;;;5.56;71.38
22753;BME280;11543;43.144;24.684;2023-02-12T12:22:38;100195.38;;;5.80;69.71
22753;BME280;11543;43.144;24.684;2023-02-12T12:32:58;100202.16;;;6.44;66.10
22753;BME280;11543;43.144;24.684;2023-02-12T12:35:38;100183.69;;;6.41;66.49
22753;BME280;11543;43.144;24.684;2023-02-12T12:46:40;100199.44;;;6.01;66.56
22753;BME280;11543;43.144;24.684;2023-02-12T12:49:51;100213.00;;;6.12;67.57
22753;BME280;11543;43.144;24.684;2023-02-12T12:55:32;100200.63;;;6.11;65.78
22753;BME280;11543;43.144;24.684;2023-02-12T13:04:13;100204.19;;;5.66;67.34
22753;BME280;11543;43.144;24.684;2023-02-12T13:12:51;100223.34;;;5.27;67.68
22753;BME280;11543;43.144;24.684;2023-02-12T13:15:38;100207.19;;;4.98;67.87
22753;BME280;11543;43.144;24.684;2023-02-12T13:23:34;100243.22;;;5.20;66.79
22753;BME280;11543;43.144;24.684;2023-02-12T13:26:44;100245.47;;;5.11;67.17
22753;BME280;11543;43.144;24.684;2023-02-12T13:31:54;100248.03;;;4.97;67.70
22753;BME280;11543;43.144;24.684;2023-02-12T13:34:21;100251.13;;;4.90;67.59
22753;BME280;11543;43.144;24.684;2023-02-12T13:36:51;100242.19;;;4.75;68.43
22753;BME280;11543;43.144;24.684;2023-02-12T13:39:26;100263.91;;;4.99;68.13
22753;BME280;11543;43.144;24.684;2023-02-12T13:44:34;100272.31;;;4.91;67.24
22753;BME280;11543;43.144;24.684;2023-02-12T14:03:28;100296.63;;;4.68;68.53
22753;BME280;11543;43.144;24.684;2023-02-12T14:06:16;100314.91;;;4.74;68.47
22753;BME280;11543;43.144;24.684;2023-02-12T14:09:09;100319.53;;;4.70;68.92
22753;BME280;11543;43.144;24.684;2023-02-12T14:11:57;100321.50;;;4.67;69.08
22753;BME280;11543;43.144;24.684;2023-02-12T14:14:29;100320.72;;;4.65;69.11
22753;BME280;11543;43.144;24.684;2023-02-12T14:16:55;100322.94;;;4.57;68.97
22753;BME280;11543;43.144;24.684;2023-02-12T14:28:56;100337.19;;;4.38;69.81
22753;BME280;11543;43.144;24.684;2023-02-12T14:31:35;100356.56;;;4.58;69.68
22753;BME280;11543;43.144;24.684;2023-02-12T14:47:02;100387.84;;;4.35;70.79
22753;BME280;11543;43.144;24.684;2023-02-12T14:49:44;100386.81;;;4.38;70.89
22753;BME280;11543;43.144;24.684;2023-02-12T14:54:56;100382.22;;;4.41;71.21
22753;BME280;11543;43.144;24.684;2023-02-12T14:57:39;100390.81;;;4.46;71.23
22753;BME280;11543;43.144;24.684;2023-02-12T15:02:54;100391.22;;;4.20;71.33
22753;BME280;11543;43.144;24.684;2023-02-12T15:05:26;100394.88;;;4.36;71.28
22753;BME280;11543;43.144;24.684;2023-02-12T15:08:06;100387.03;;;4.51;70.42
22753;BME280;11543;43.144;24.684;2023-02-12T15:10:40;100376.56;;;4.47;70.12
22753;BME280;11543;43.144;24.684;2023-02-12T15:16:26;100360.31;;;4.54;69.81
22753;BME280;11543;43.144;24.684;2023-02-12T15:18:59;100407.16;;;4.89;69.48
22753;BME280;11543;43.144;24.684;2023-02-12T15:21:32;100403.66;;;4.89;68.96
22753;BME280;11543;43.144;24.684;2023-02-12T15:24:21;100404.69;;;4.86;69.05
22753;BME280;11543;43.144;24.684;2023-02-12T15:26:50;100401.47;;;4.79;68.67
22753;BME280;11543;43.144;24.684;2023-02-12T15:29:23;100421.88;;;4.96;68.19
22753;BME280;11543;43.144;24.684;2023-02-12T15:31:52;100426.16;;;4.99;67.94
22753;BME280;11543;43.144;24.684;2023-02-12T15:34:21;100437.00;;;5.11;67.39
22753;BME280;11543;43.144;24.684;2023-02-12T15:36:48;100406.50;;;5.01;67.87
22753;BME280;11543;43.144;24.684;2023-02-12T15:39:17;100436.06;;;5.30;67.46
22753;BME280;11543;43.144;24.684;2023-02-12T15:41:44;100425.41;;;5.30;67.72
22753;BME280;11543;43.144;24.684;2023-02-12T15:44:30;100423.34;;;5.35;67.77
22753;BME280;11543;43.144;24.684;2023-02-12T15:47:00;100419.75;;;5.36;67.07
22753;BME280;11543;43.144;24.684;2023-02-12T15:49:34;100448.63;;;5.59;67.25
22753;BME280;11543;43.144;24.684;2023-02-12T15:52:16;100453.63;;;5.65;66.95
22753;BME280;11543;43.144;24.684;2023-02-12T15:54:45;100441.59;;;5.58;67.17